Time;durP1;ratioP1;P1;durP2;ratioP2;P2;SDS_P1;SDS_P2;PMS_P1;PMS_P2;Temp;Humidity;BMP_temperature;BMP_pressure;BME280_temperature;BME280_humidity;BME280_pressure;Samples;Min_cycle;Max_cycle;Signal;HPM_P1;HPM_P2
2021/08/22 00:00:28;;;;;;;8.43;6.60;;;;;;;21.31;54.94;95151.97;5076089;28;20456;-78
2021/08/22 00:02:55;;;;;;;8.20;7.37;;;;;;;21.12;55.52;95154.41;5075575;28;20812;-79
2021/08/22 00:05:22;;;;;;;6.80;5.70;;;;;;;20.89;56.08;95174.06;5075520;28;20531;-78
2021/08/22 00:07:49;;;;;;;6.17;5.67;;;;;;;20.88;56.31;95164.41;5056842;28;20441;-78
2021/08/22 00:10:17;;;;;;;8.87;7.00;;;;;;;20.97;56.16;95159.78;5056723;28;20531;-78
2021/08/22 00:12:44;;;;;;;6.73;6.23;;;;;;;21.05;55.61;95164.97;5075118;28;20834;-78
2021/08/22 00:15:13;;;;;;;6.80;6.17;;;;;;;21.06;55.79;95174.66;5076210;28;20559;-78
2021/08/22 00:17:40;;;;;;;7.40;6.60;;;;;;;21.06;56.41;95169.31;5075424;28;20453;-78
2021/08/22 00:20:08;;;;;;;7.43;6.47;;;;;;;21.12;55.85;95171.25;5075647;28;20812;-78
2021/08/22 00:22:36;;;;;;;7.33;6.70;;;;;;;21.17;56.68;95170.69;5075152;28;20453;-78
2021/08/22 00:25:03;;;;;;;7.90;7.20;;;;;;;21.16;57.87;95171.69;5075501;28;20441;-78
2021/08/22 00:27:30;;;;;;;8.60;7.63;;;;;;;21.17;58.17;95170.69;5075192;28;20451;-78
2021/08/22 00:29:57;;;;;;;9.03;7.30;;;;;;;21.14;58.83;95173.72;5056090;28;20445;-78
2021/08/22 00:32:26;;;;;;;15.47;8.20;;;;;;;21.14;59.70;95179.06;5075474;28;20497;-79
2021/08/22 00:34:53;;;;;;;8.87;7.87;;;;;;;21.13;59.58;95178.25;5075033;28;20452;-79
2021/08/22 00:37:20;;;;;;;10.17;7.33;;;;;;;21.13;59.63;95178.25;5075454;28;20528;-78
2021/08/22 00:39:48;;;;;;;7.80;7.10;;;;;;;21.15;59.55;95178.06;5075323;28;20477;-78
2021/08/22 00:42:15;;;;;;;17.67;8.03;;;;;;;21.17;59.94;95178.69;5075353;28;20449;-79
2021/08/22 00:44:42;;;;;;;9.23;8.23;;;;;;;21.20;59.75;95172.97;5074895;28;20453;-78
2021/08/22 00:47:09;;;;;;;8.30;7.50;;;;;;;21.23;60.15;95177.94;5075067;28;20797;-78
2021/08/22 00:49:38;;;;;;;8.67;7.20;;;;;;;21.20;60.20;95171.13;5074611;28;20932;-78
2021/08/22 00:52:06;;;;;;;8.43;7.73;;;;;;;21.18;60.30;95169.66;5074676;28;20485;-78
2021/08/22 00:54:34;;;;;;;8.13;7.40;;;;;;;21.20;60.28;95164.97;5074781;28;20437;-78
2021/08/22 00:57:01;;;;;;;7.90;7.20;;;;;;;21.22;60.25;95174.44;5074709;28;20455;-78
2021/08/22 00:59:28;;;;;;;8.60;7.77;;;;;;;21.25;60.05;95174.09;5074481;28;20539;-78
2021/08/22 01:01:58;;;;;;;9.33;8.53;;;;;;;21.22;59.64;95163.75;5074456;28;20917;-78
2021/08/22 01:04:37;;;;;;;8.23;7.53;;;;;;;21.20;59.42;95165.78;5074352;28;20458;-79
2021/08/22 01:07:18;;;;;;;10.93;7.47;;;;;;;21.23;59.27;95164.59;5074403;28;20502;-78
2021/08/22 01:09:48;;;;;;;8.40;7.60;;;;;;;21.23;59.33;95164.59;5074115;28;20955;-78
2021/08/22 01:12:20;;;;;;;11.70;7.50;;;;;;;21.21;59.26;95163.94;5074794;28;20477;-78
2021/08/22 01:14:52;;;;;;;8.40;7.70;;;;;;;21.17;60.08;95160.84;5074834;28;20805;-78
2021/08/22 01:17:22;;;;;;;8.80;8.00;;;;;;;21.12;60.17;95157.91;5074484;28;20452;-78
2021/08/22 01:19:55;;;;;;;12.10;8.37;;;;;;;21.11;60.53;95158.09;5074172;28;20437;-78
2021/08/22 01:22:26;;;;;;;9.90;8.87;;;;;;;21.01;60.60;95161.88;5074301;28;20444;-78
2021/08/22 01:24:54;;;;;;;10.23;9.23;;;;;;;20.98;60.56;95153.41;5074150;28;20452;-78
2021/08/22 01:27:23;;;;;;;9.17;8.37;;;;;;;20.97;60.71;95160.59;5055528;28;20901;-78
2021/08/22 01:29:56;;;;;;;10.70;9.60;;;;;;;20.99;60.91;95169.22;5073975;28;20437;-78
2021/08/22 01:32:23;;;;;;;10.37;8.63;;;;;;;20.88;61.13;95166.22;5074317;28;20817;-78
2021/08/22 01:34:51;;;;;;;8.17;7.37;;;;;;;20.79;61.02;95168.16;5074083;28;20451;-78
2021/08/22 01:37:19;;;;;;;9.23;7.30;;;;;;;20.71;61.66;95174.44;5074221;28;20473;-78
2021/08/22 01:39:47;;;;;;;9.60;8.57;;;;;;;20.70;61.47;95179.94;5073740;28;20449;-78
2021/08/22 01:42:14;;;;;;;10.73;8.20;;;;;;;20.69;61.13;95173.78;5073838;28;20876;-78
2021/08/22 01:44:44;;;;;;;8.57;7.80;;;;;;;20.62;61.42;95169.38;5074307;28;20437;-78
2021/08/22 01:47:12;;;;;;;10.93;8.00;;;;;;;20.45;61.57;95174.06;5073984;28;20449;-79
2021/08/22 01:49:40;;;;;;;12.17;8.30;;;;;;;20.42;61.60;95172.59;5074128;28;20441;-78
2021/08/22 01:52:09;;;;;;;10.50;8.77;;;;;;;20.40;62.03;95173.78;5073281;28;20486;-78
2021/08/22 01:54:36;;;;;;;10.63;8.00;;;;;;;20.49;61.76;95171.84;5073696;28;20444;-78
2021/08/22 01:57:04;;;;;;;9.50;8.27;;;;;;;20.48;61.81;95172.88;5038531;28;20460;-78
2021/08/22 01:59:31;;;;;;;8.87;8.00;;;;;;;20.53;61.42;95175.81;5073445;28;20534;-78
2021/08/22 02:01:58;;;;;;;8.30;7.10;;;;;;;20.60;61.46;95184.75;5038234;28;20443;-78
2021/08/22 02:04:34;;;;;;;11.73;8.60;;;;;;;20.59;60.73;95172.44;5073443;28;20524;-78
2021/08/22 02:07:09;;;;;;;8.27;7.43;;;;;;;20.59;61.28;95175.09;5073213;28;20458;-78
2021/08/22 02:09:42;;;;;;;7.87;7.17;;;;;;;20.55;61.05;95173.81;5073802;28;20446;-78
2021/08/22 02:12:15;;;;;;;8.33;7.37;;;;;;;20.52;61.02;95174.16;5073103;28;20491;-78
2021/08/22 02:14:46;;;;;;;11.23;7.53;;;;;;;20.50;60.83;95166.34;5073450;28;20452;-78
2021/08/22 02:17:15;;;;;;;12.13;8.47;;;;;;;20.50;61.20;95169.00;5073411;28;20441;-78
2021/08/22 02:19:43;;;;;;;9.30;8.40;;;;;;;20.49;61.21;95162.00;5073145;28;20451;-78
2021/08/22 02:22:10;;;;;;;8.93;7.87;;;;;;;20.53;60.87;95168.66;5054598;28;21057;-78
2021/08/22 02:24:39;;;;;;;9.70;8.37;;;;;;;20.47;60.99;95165.88;5054688;28;20522;-78
2021/08/22 02:27:06;;;;;;;9.10;8.30;;;;;;;20.51;60.63;95159.16;5073242;28;20533;-78
2021/08/22 02:29:33;;;;;;;9.13;8.03;;;;;;;20.51;60.73;95156.50;5073220;28;20449;-78
2021/08/22 02:32:00;;;;;;;9.57;8.33;;;;;;;20.50;60.85;95158.34;5073236;28;20772;-78
2021/08/22 02:34:27;;;;;;;9.20;8.40;;;;;;;20.51;60.93;95159.16;5073087;28;20457;-78
2021/08/22 02:36:53;;;;;;;8.10;7.40;;;;;;;20.48;61.04;95165.69;5073335;28;20804;-78
2021/08/22 02:39:20;;;;;;;8.17;7.47;;;;;;;20.41;61.14;95157.63;5054238;28;20447;-78
2021/08/22 02:41:50;;;;;;;8.73;7.93;;;;;;;20.41;61.09;95157.63;5073498;28;20441;-78
2021/08/22 02:44:16;;;;;;;9.13;8.13;;;;;;;20.37;60.80;95164.28;5073275;28;20444;-78
2021/08/22 02:46:43;;;;;;;11.90;8.57;;;;;;;20.31;61.16;95159.69;5054381;28;20452;-78
2021/08/22 02:49:10;;;;;;;9.87;8.20;;;;;;;20.29;61.56;95156.41;5073189;28;20445;-78
2021/08/22 02:51:37;;;;;;;9.47;7.87;;;;;;;20.28;61.55;95153.91;5074367;28;20444;-78
2021/08/22 02:54:04;;;;;;;8.37;7.57;;;;;;;20.27;61.59;95152.25;5077127;28;20472;-78
2021/08/22 02:56:31;;;;;;;8.57;7.77;;;;;;;20.24;61.61;95157.94;5077400;28;20445;-78
2021/08/22 02:59:00;;;;;;;8.20;7.50;;;;;;;20.19;61.91;95157.66;5076867;28;20524;-78
2021/08/22 03:01:26;;;;;;;9.03;8.10;;;;;;;20.16;61.84;95155.34;5077158;28;20452;-78
2021/08/22 03:03:53;;;;;;;9.63;8.70;;;;;;;20.14;61.81;95160.88;5058082;28;20513;-78
2021/08/22 03:06:23;;;;;;;8.70;7.90;;;;;;;20.10;62.43;95156.91;5077176;28;20937;-78
2021/08/22 03:08:50;;;;;;;10.63;7.67;;;;;;;20.07;62.33;95158.13;5076753;28;20454;-78
2021/08/22 03:11:17;;;;;;;9.50;8.60;;;;;;;20.02;62.63;95154.34;5076837;28;20481;-78
2021/08/22 03:13:44;;;;;;;7.90;7.07;;;;;;;19.99;62.77;95160.88;5076789;28;20503;-78
2021/08/22 03:16:13;;;;;;;13.07;7.60;;;;;;;19.98;62.72;95163.72;5058091;28;20433;-78
2021/08/22 03:18:40;;;;;;;10.53;7.00;;;;;;;19.88;63.09;95169.28;5076499;28;20457;-78
2021/08/22 03:21:07;;;;;;;8.37;7.67;;;;;;;19.86;63.05;95170.47;5076614;28;20786;-78
2021/08/22 03:23:34;;;;;;;9.80;8.90;;;;;;;19.90;63.08;95167.25;5076357;28;20448;-78
2021/08/22 03:26:02;;;;;;;9.97;8.83;;;;;;;19.91;63.20;95173.41;5076550;28;20526;-78
2021/08/22 03:28:29;;;;;;;8.70;7.80;;;;;;;19.90;63.15;95177.91;5076745;28;20451;-78
2021/08/22 03:30:56;;;;;;;11.20;10.03;;;;;;;19.91;63.09;95178.75;5076803;28;20455;-79
2021/08/22 03:33:24;;;;;;;8.47;7.70;;;;;;;19.91;63.15;95173.41;5076036;28;20478;-78
2021/08/22 03:35:52;;;;;;;9.03;8.23;;;;;;;19.91;63.38;95179.56;5076756;28;20451;-78
2021/08/22 03:38:19;;;;;;;10.63;8.90;;;;;;;19.87;63.28;95172.94;5076233;28;20792;-78
2021/08/22 03:40:46;;;;;;;7.87;7.17;;;;;;;19.88;63.42;95173.78;5076375;28;20478;-78
2021/08/22 03:43:13;;;;;;;10.17;7.93;;;;;;;19.84;63.61;95177.81;5076156;28;20454;-78
2021/08/22 03:45:40;;;;;;;8.33;7.47;;;;;;;19.73;63.77;95173.75;5040880;28;20454;-78
2021/08/22 03:48:07;;;;;;;10.03;7.83;;;;;;;19.77;63.81;95177.72;5076375;28;20537;-78
2021/08/22 03:50:36;;;;;;;8.13;7.53;;;;;;;19.76;63.83;95179.53;5057392;28;20438;-78
2021/08/22 03:53:03;;;;;;;12.03;7.80;;;;;;;19.77;64.09;95189.19;5076144;28;20483;-78
2021/08/22 03:55:30;;;;;;;8.70;7.90;;;;;;;19.79;64.10;95189.00;5075867;28;20445;-78
2021/08/22 03:57:56;;;;;;;8.63;7.93;;;;;;;19.78;64.23;95182.03;5075544;28;20452;-79
2021/08/22 04:00:23;;;;;;;10.83;8.17;;;;;;;19.74;64.38;95186.88;5076128;28;20465;-79
2021/08/22 04:02:50;;;;;;;11.93;8.27;;;;;;;19.80;64.04;95190.66;5074453;28;20954;-78
2021/08/22 04:05:17;;;;;;;9.00;7.70;;;;;;;19.80;64.21;95191.50;5075825;28;20948;-78
2021/08/22 04:07:48;;;;;;;10.23;8.77;;;;;;;19.79;64.08;95194.31;5075835;28;20569;-78
2021/08/22 04:10:16;;;;;;;8.57;7.77;;;;;;;19.84;64.09;95201.78;5075349;28;20944;-78
2021/08/22 04:12:42;;;;;;;8.67;7.80;;;;;;;19.91;63.69;95202.72;5075359;28;20488;-78
2021/08/22 04:15:10;;;;;;;8.83;7.90;;;;;;;19.98;63.45;95193.84;5056712;28;20451;-78
2021/08/22 04:17:37;;;;;;;9.37;8.27;;;;;;;20.08;63.40;95206.91;5075519;28;20445;-78
2021/08/22 04:20:06;;;;;;;9.07;7.50;;;;;;;20.14;63.02;95198.19;5075488;28;20450;-79
2021/08/22 04:22:36;;;;;;;8.13;7.07;;;;;;;20.38;62.58;95208.59;5075363;28;20526;-78
2021/08/22 04:25:06;;;;;;;14.33;8.67;;;;;;;20.71;61.59;95206.44;5075511;28;20451;-78
2021/08/22 04:27:33;;;;;;;8.90;8.10;;;;;;;21.07;60.29;95202.16;5075421;28;20820;-78
2021/08/22 04:30:01;;;;;;;8.53;7.20;;;;;;;21.37;59.27;95203.78;5075043;28;20520;-78
2021/08/22 04:32:28;;;;;;;9.00;7.60;;;;;;;21.45;58.53;95206.34;5075296;28;20442;-78
2021/08/22 04:34:54;;;;;;;8.50;7.70;;;;;;;21.46;58.46;95207.19;5056479;28;20499;-78
2021/08/22 04:37:21;;;;;;;8.17;7.20;;;;;;;21.40;58.69;95214.09;5075096;28;20442;-78
2021/08/22 04:39:48;;;;;;;8.80;8.00;;;;;;;21.38;58.41;95221.44;5075143;28;20449;-78
2021/08/22 04:42:17;;;;;;;8.63;7.07;;;;;;;21.32;58.70;95216.88;5075208;28;20452;-78
2021/08/22 04:44:44;;;;;;;7.27;6.63;;;;;;;21.23;58.89;95205.47;5075381;28;20445;-78
2021/08/22 04:47:10;;;;;;;8.97;7.30;;;;;;;21.17;59.45;95214.22;5056278;28;20451;-78
2021/08/22 04:49:37;;;;;;;8.27;7.47;;;;;;;21.09;59.81;95213.47;5075120;28;20437;-78
2021/08/22 04:52:05;;;;;;;9.67;8.77;;;;;;;21.01;60.21;95215.22;5074704;28;20530;-78
2021/08/22 04:54:32;;;;;;;16.70;11.50;;;;;;;21.01;60.47;95219.75;5074944;28;20476;-78
2021/08/22 04:56:59;;;;;;;17.30;11.67;;;;;;;21.08;60.83;95225.16;5074754;28;20445;-78
2021/08/22 04:59:27;;;;;;;31.03;26.20;;;;;;;21.34;60.52;95225.50;5075106;28;20545;-78
2021/08/22 05:01:54;;;;;;;21.87;19.63;;;;;;;21.67;58.99;95223.19;5074563;28;20446;-78
2021/08/22 05:04:21;;;;;;;22.53;20.47;;;;;;;21.97;57.71;95226.56;5039512;28;20451;-78
2021/08/22 05:06:48;;;;;;;31.00;26.67;;;;;;;22.32;56.61;95230.19;5039517;28;20454;-78
2021/08/22 05:09:15;;;;;;;17.43;15.53;;;;;;;22.71;55.84;95224.28;5074595;28;20447;-78
2021/08/22 05:11:42;;;;;;;11.40;9.93;;;;;;;23.14;54.37;95226.81;5074621;28;20883;-78
2021/08/22 05:14:08;;;;;;;9.40;8.40;;;;;;;23.53;53.77;95228.81;5073811;28;20501;-78
2021/08/22 05:16:37;;;;;;;7.70;7.00;;;;;;;23.78;53.61;95229.94;5074547;28;20446;-78
2021/08/22 05:19:04;;;;;;;8.47;7.63;;;;;;;24.00;53.62;95230.59;5074628;28;20452;-79
2021/08/22 05:21:31;;;;;;;8.30;7.50;;;;;;;24.14;52.92;95230.59;5074067;28;20493;-78
2021/08/22 05:23:58;;;;;;;8.40;7.60;;;;;;;24.28;52.69;95233.09;5074060;28;20451;-78
2021/08/22 05:26:25;;;;;;;7.63;6.93;;;;;;;24.44;52.20;95231.06;5055475;28;20581;-78
2021/08/22 05:28:53;;;;;;;11.30;7.17;;;;;;;24.63;51.58;95231.03;5074081;28;20451;-79
2021/08/22 05:31:20;;;;;;;7.83;7.03;;;;;;;24.85;50.40;95223.53;5074118;28;20526;-78
2021/08/22 05:33:48;;;;;;;7.50;6.90;;;;;;;24.98;50.07;95231.63;5055367;28;20479;-78
2021/08/22 05:36:16;;;;;;;7.30;6.60;;;;;;;25.17;50.07;95229.91;5038752;28;20455;-78
2021/08/22 05:38:43;;;;;;;13.10;7.63;;;;;;;25.36;48.59;95225.47;5074307;28;20545;-78
2021/08/22 05:41:10;;;;;;;9.03;7.97;;;;;;;25.54;49.14;95232.84;5073838;28;20519;-78
2021/08/22 05:43:37;;;;;;;8.70;7.17;;;;;;;25.70;48.96;95232.38;5055193;28;21153;-78
2021/08/22 05:46:04;;;;;;;8.20;7.50;;;;;;;25.93;48.01;95232.66;5073574;28;20528;-79
2021/08/22 05:48:32;;;;;;;9.47;7.57;;;;;;;26.14;47.51;95226.09;5073477;28;20451;-78
2021/08/22 05:51:01;;;;;;;11.90;9.33;;;;;;;26.33;46.28;95228.88;5073818;28;20445;-79
2021/08/22 05:53:29;;;;;;;12.43;7.57;;;;;;;26.45;46.40;95232.53;5073643;28;20494;-79
2021/08/22 05:55:56;;;;;;;7.50;6.80;;;;;;;26.61;46.11;95228.47;5073404;28;20444;-78
2021/08/22 05:58:23;;;;;;;8.80;8.00;;;;;;;26.77;44.02;95233.25;5073343;28;20499;-78
2021/08/22 06:00:51;;;;;;;7.27;6.57;;;;;;;26.98;44.88;95240.94;5073628;28;20459;-78
2021/08/22 06:03:18;;;;;;;7.60;6.90;;;;;;;27.24;45.17;95233.63;5073452;28;20444;-79
2021/08/22 06:05:45;;;;;;;8.43;7.53;;;;;;;27.36;43.86;95227.25;5073342;28;20932;-78
2021/08/22 06:08:13;;;;;;;7.43;6.73;;;;;;;27.57;45.02;95234.06;5054652;28;20449;-78
2021/08/22 06:10:40;;;;;;;8.47;7.67;;;;;;;27.65;42.54;95230.25;5037875;28;20476;-79
2021/08/22 06:13:07;;;;;;;8.63;7.80;;;;;;;27.51;41.81;95231.44;5073141;28;20952;-78
2021/08/22 06:15:34;;;;;;;9.33;8.07;;;;;;;27.39;42.18;95232.19;5038077;28;20444;-78
2021/08/22 06:18:01;;;;;;;12.53;7.73;;;;;;;27.37;41.91;95231.59;5073246;28;20467;-78
2021/08/22 06:20:28;;;;;;;15.53;7.57;;;;;;;27.50;42.76;95229.81;5073177;28;20448;-78
2021/08/22 06:22:55;;;;;;;9.70;7.63;;;;;;;27.59;42.50;95223.03;5073036;28;20841;-79
2021/08/22 06:25:24;;;;;;;8.33;7.10;;;;;;;27.70;41.55;95222.28;5073358;28;20453;-78
2021/08/22 06:27:50;;;;;;;12.33;7.40;;;;;;;27.79;42.38;95215.53;5072461;28;20905;-79
2021/08/22 06:30:18;;;;;;;9.17;7.83;;;;;;;27.95;40.76;95220.28;5072883;28;20800;-79
2021/08/22 06:32:45;;;;;;;18.70;7.90;;;;;;;28.13;41.98;95221.28;5073020;28;20532;-79
2021/08/22 06:35:12;;;;;;;8.80;8.00;;;;;;;28.33;40.38;95229.91;5072989;28;20476;-79
2021/08/22 06:37:42;;;;;;;8.60;7.83;;;;;;;28.43;41.33;95221.25;5072934;28;20440;-78
2021/08/22 06:40:13;;;;;;;8.77;7.87;;;;;;;28.26;40.45;95224.59;5072708;28;20445;-79
2021/08/22 06:42:42;;;;;;;7.53;6.83;;;;;;;27.48;42.14;95221.94;5038934;28;20449;-79
2021/08/22 06:45:09;;;;;;;8.70;7.83;;;;;;;27.41;42.49;95218.50;5073208;28;20457;-78
2021/08/22 06:47:36;;;;;;;10.13;7.57;;;;;;;27.32;43.59;95225.25;5073113;28;20444;-79
2021/08/22 06:50:03;;;;;;;9.43;8.13;;;;;;;27.49;42.44;95220.06;5072803;28;20440;-79
2021/08/22 06:52:30;;;;;;;10.83;8.80;;;;;;;27.66;42.32;95224.63;5072773;28;20559;-78
2021/08/22 06:54:57;;;;;;;9.50;8.70;;;;;;;27.63;41.77;95222.38;5072744;28;20579;-78
2021/08/22 06:57:24;;;;;;;9.60;8.27;;;;;;;27.37;41.94;95215.41;5073015;28;20455;-78
2021/08/22 06:59:53;;;;;;;8.53;7.63;;;;;;;27.55;42.49;95225.38;5072663;28;20455;-79
2021/08/22 07:02:20;;;;;;;9.53;8.30;;;;;;;27.73;42.36;95224.53;5072585;28;20448;-78
2021/08/22 07:04:47;;;;;;;10.20;8.50;;;;;;;28.03;42.27;95222.63;5072621;28;20457;-78
2021/08/22 07:07:14;;;;;;;10.50;8.43;;;;;;;28.20;42.06;95230.91;5072687;28;20455;-79
2021/08/22 07:09:40;;;;;;;12.50;8.90;;;;;;;28.22;40.76;95225.28;5072880;28;20445;-79
2021/08/22 07:12:08;;;;;;;13.70;8.20;;;;;;;28.25;40.57;95225.66;5072554;28;20469;-79
2021/08/22 07:14:35;;;;;;;9.40;8.40;;;;;;;28.40;40.76;95227.94;5072225;28;20495;-78
2021/08/22 07:17:05;;;;;;;7.90;7.10;;;;;;;28.45;39.99;95221.84;5072343;28;20807;-79
2021/08/22 07:19:32;;;;;;;9.10;7.13;;;;;;;28.38;39.28;95225.47;5072556;28;20519;-79
2021/08/22 07:21:59;;;;;;;9.10;8.10;;;;;;;28.49;38.94;95231.09;5072171;28;20440;-79
2021/08/22 07:24:26;;;;;;;8.67;7.70;;;;;;;28.68;39.74;95225.38;5072640;28;20440;-79
2021/08/22 07:26:53;;;;;;;8.50;7.70;;;;;;;28.57;38.54;95226.19;5072455;28;20532;-79
2021/08/22 07:29:19;;;;;;;9.07;8.17;;;;;;;28.60;39.50;95228.41;5072678;28;20677;-78
2021/08/22 07:31:46;;;;;;;8.47;7.67;;;;;;;28.63;38.37;95225.28;5072267;28;20442;-79
2021/08/22 07:34:15;;;;;;;12.30;7.60;;;;;;;28.61;39.10;95224.66;5072507;28;20486;-79
2021/08/22 07:36:42;;;;;;;8.77;7.77;;;;;;;28.67;38.63;95214.81;5072523;28;20454;-80
2021/08/22 07:39:11;;;;;;;11.50;8.50;;;;;;;28.80;38.72;95216.44;5056881;28;20464;-78
2021/08/22 07:41:38;;;;;;;10.80;7.67;;;;;;;28.98;38.04;95222.59;5076272;28;20444;-79
2021/08/22 07:44:05;;;;;;;13.47;7.10;;;;;;;29.14;37.82;95223.72;5057298;28;20933;-78
2021/08/22 07:46:32;;;;;;;8.47;7.67;;;;;;;29.36;36.98;95215.81;5041062;28;20448;-78
2021/08/22 07:48:59;;;;;;;8.13;7.43;;;;;;;29.32;37.25;95214.66;5075950;28;20451;-79
2021/08/22 07:51:27;;;;;;;13.33;8.23;;;;;;;29.43;36.98;95223.78;5075822;28;20450;-78
2021/08/22 07:53:54;;;;;;;8.77;7.97;;;;;;;29.59;36.14;95221.19;5057013;28;20476;-78
2021/08/22 07:56:21;;;;;;;8.10;7.30;;;;;;;29.80;36.70;95210.78;5076065;28;20448;-79
2021/08/22 07:58:48;;;;;;;7.80;7.00;;;;;;;29.80;35.67;95211.59;5075649;28;20445;-78
2021/08/22 08:01:15;;;;;;;7.53;6.93;;;;;;;29.88;35.69;95216.63;5075849;28;20436;-79
2021/08/22 08:03:42;;;;;;;8.13;7.33;;;;;;;29.76;36.15;95210.41;5040501;28;20447;-79
2021/08/22 08:06:09;;;;;;;7.60;7.00;;;;;;;29.56;36.08;95215.44;5075809;28;20440;-79
2021/08/22 08:08:37;;;;;;;8.90;8.03;;;;;;;29.60;36.09;95212.00;5075752;28;20805;-79
2021/08/22 08:11:04;;;;;;;11.73;7.43;;;;;;;29.70;37.09;95213.28;5056638;28;20494;-79
2021/08/22 08:13:31;;;;;;;8.23;6.50;;;;;;;29.57;36.36;95217.09;5075717;28;20482;-79
2021/08/22 08:15:58;;;;;;;8.77;7.23;;;;;;;29.59;36.98;95209.56;5075230;28;20490;-78
2021/08/22 08:18:25;;;;;;;8.20;6.80;;;;;;;29.74;36.66;95212.53;5075385;28;20451;-79
2021/08/22 08:20:52;;;;;;;11.83;8.40;;;;;;;29.93;35.77;95202.34;5075536;28;20440;-79
2021/08/22 08:23:19;;;;;;;8.17;7.47;;;;;;;30.12;35.77;95201.09;5075912;28;20964;-79
2021/08/22 08:25:47;;;;;;;9.30;8.17;;;;;;;30.38;35.29;95201.53;5075302;28;20449;-79
2021/08/22 08:28:14;;;;;;;12.83;7.70;;;;;;;30.37;35.37;95206.13;5056621;28;20519;-78
2021/08/22 08:30:41;;;;;;;7.57;6.87;;;;;;;30.25;35.20;95202.66;5056406;28;20439;-79
2021/08/22 08:33:08;;;;;;;9.60;6.50;;;;;;;30.24;35.63;95201.03;5075040;28;20952;-78
2021/08/22 08:35:35;;;;;;;8.10;7.37;;;;;;;30.19;35.12;95209.06;5075317;28;20812;-79
2021/08/22 08:38:03;;;;;;;8.47;6.50;;;;;;;29.81;34.69;95194.31;5074909;28;20531;-79
2021/08/22 08:40:30;;;;;;;11.30;7.57;;;;;;;29.89;35.37;95196.59;5074971;28;20440;-79
2021/08/22 08:42:58;;;;;;;13.30;6.90;;;;;;;30.02;35.14;95192.75;5074772;28;20824;-79
2021/08/22 08:45:33;;;;;;;9.30;6.90;;;;;;;30.06;35.49;95195.81;5075185;28;20535;-78
2021/08/22 08:48:00;;;;;;;12.00;7.77;;;;;;;30.02;35.78;95198.19;5074654;28;20441;-78
2021/08/22 08:50:28;;;;;;;6.87;6.13;;;;;;;29.97;35.15;95192.69;5073904;28;20521;-79
2021/08/22 08:52:59;;;;;;;6.93;6.33;;;;;;;29.78;35.10;95189.38;5074750;28;20540;-78
2021/08/22 08:55:28;;;;;;;7.60;6.80;;;;;;;29.64;35.40;95185.31;5074545;28;20583;-79
2021/08/22 08:57:56;;;;;;;9.43;6.33;;;;;;;29.44;34.99;95185.72;5074618;28;21024;-79
2021/08/22 09:00:26;;;;;;;8.83;6.10;;;;;;;29.63;35.05;95178.25;5074818;28;20794;-79
2021/08/22 09:02:53;;;;;;;7.40;6.60;;;;;;;29.90;34.86;95182.00;5055833;28;20451;-79
2021/08/22 09:05:58;;;;;;;6.60;6.10;;;;;;;30.14;33.77;95180.03;5074388;28;20532;-79
2021/08/22 09:09:00;;;;;;;6.67;5.93;;;;;;;30.43;33.69;95183.47;5012712;28;20953;-78
2021/08/22 09:12:00;;;;;;;7.10;6.50;;;;;;;30.59;33.71;95176.41;5012094;28;20482;-79
2021/08/22 09:15:14;;;;;;;6.97;6.27;;;;;;;30.64;32.13;95181.91;5012076;28;20479;-79
2021/08/22 09:18:18;;;;;;;8.23;6.30;;;;;;;30.59;32.17;95175.59;4954019;29;20470;-79
2021/08/22 09:21:22;;;;;;;7.30;5.63;;;;;;;30.61;32.54;95176.19;4922039;29;20448;-79
2021/08/22 09:24:51;;;;;;;11.40;5.23;;;;;;;30.72;33.17;95170.69;4953923;29;20456;-79
2021/08/22 09:27:54;;;;;;;7.43;6.17;;;;;;;30.83;33.23;95167.03;4953758;29;20544;-79
2021/08/22 09:31:05;;;;;;;10.80;6.07;;;;;;;30.76;32.30;95166.41;4877992;29;20802;-79
2021/08/22 09:34:08;;;;;;;6.30;5.53;;;;;;;30.86;31.18;95160.28;4877933;29;20556;-79
2021/08/22 09:37:14;;;;;;;7.03;5.77;;;;;;;30.76;32.09;95166.41;4877990;29;20573;-79
2021/08/22 09:40:17;;;;;;;6.50;5.90;;;;;;;30.70;33.39;95162.00;4877903;29;20456;-78
2021/08/22 09:43:21;;;;;;;7.13;5.70;;;;;;;30.75;32.25;95155.81;4878044;29;20547;-79
2021/08/22 09:46:25;;;;;;;10.07;6.50;;;;;;;30.54;32.33;95151.94;4931408;29;20585;-79
2021/08/22 09:49:28;;;;;;;6.23;5.73;;;;;;;30.40;31.94;95156.09;4953452;29;20783;-79
2021/08/22 09:52:36;;;;;;;6.17;5.77;;;;;;;30.45;32.45;95153.44;4953306;29;20557;-79
2021/08/22 09:55:48;;;;;;;6.00;5.50;;;;;;;30.54;32.54;95135.69;4951446;29;20529;-80
2021/08/22 09:58:53;;;;;;;6.67;5.60;;;;;;;30.51;32.14;95137.00;4915142;29;20482;-79
2021/08/22 10:01:56;;;;;;;8.00;7.17;;;;;;;30.52;32.25;95146.78;4899145;29;20454;-78
2021/08/22 10:04:58;;;;;;;7.17;6.27;;;;;;;30.41;31.76;95142.28;4915109;29;20928;-79
2021/08/22 10:07:51;;;;;;;8.27;6.53;;;;;;;30.41;32.12;95136.88;4909178;29;20447;-79
2021/08/22 10:10:20;;;;;;;8.83;6.20;;;;;;;30.27;32.16;95140.16;4877186;29;20449;-79
2021/08/22 10:12:47;;;;;;;6.77;6.03;;;;;;;30.35;31.43;95131.59;4877328;29;20450;-78
2021/08/22 10:15:18;;;;;;;7.57;6.87;;;;;;;30.30;31.07;95134.25;4877116;29;20846;-79
2021/08/22 10:17:47;;;;;;;6.77;6.03;;;;;;;30.32;32.20;95123.97;4877497;29;20448;-79
2021/08/22 10:20:15;;;;;;;7.77;7.07;;;;;;;30.20;30.65;95126.78;4877045;29;20445;-78
2021/08/22 10:22:43;;;;;;;7.23;6.53;;;;;;;30.14;30.32;95131.31;4861539;29;20446;-79
2021/08/22 10:25:12;;;;;;;6.73;6.23;;;;;;;30.19;31.71;95123.25;4877309;29;20453;-78
2021/08/22 10:27:49;;;;;;;6.87;6.27;;;;;;;30.18;31.56;95126.22;4877132;29;20457;-79
2021/08/22 10:30:20;;;;;;;7.33;6.67;;;;;;;30.06;30.56;95126.28;4877029;29;20461;-78
2021/08/22 10:33:13;;;;;;;7.10;6.50;;;;;;;30.05;29.28;95124.63;4929927;29;20453;-79
2021/08/22 10:35:42;;;;;;;7.10;6.40;;;;;;;29.91;29.77;95121.41;4952543;28;20517;-78
2021/08/22 10:38:23;;;;;;;6.77;6.23;;;;;;;29.91;29.74;95121.41;4952983;29;20450;-78
2021/08/22 10:40:51;;;;;;;7.13;6.43;;;;;;;29.95;29.99;95119.03;4963169;28;20451;-79
2021/08/22 10:43:38;;;;;;;7.70;6.97;;;;;;;30.02;30.41;95116.16;4994475;28;20450;-79
2021/08/22 10:46:06;;;;;;;7.40;6.70;;;;;;;30.14;30.16;95116.94;5011111;28;20456;-78
2021/08/22 10:48:52;;;;;;;8.20;7.50;;;;;;;30.29;30.02;95116.34;5073016;28;20451;-79
2021/08/22 10:51:22;;;;;;;8.53;6.50;;;;;;;30.38;29.50;95107.59;5072910;28;20507;-79
2021/08/22 10:53:51;;;;;;;8.17;7.57;;;;;;;30.36;30.85;95109.72;5072490;28;20532;-79
2021/08/22 10:56:37;;;;;;;7.40;6.80;;;;;;;30.27;28.41;95107.66;5072771;28;20483;-79
2021/08/22 10:59:06;;;;;;;7.40;6.47;;;;;;;30.39;29.30;95105.69;5072956;28;20444;-78
2021/08/22 11:01:33;;;;;;;8.83;6.70;;;;;;;30.45;28.94;95099.28;5073055;28;20955;-79
2021/08/22 11:04:05;;;;;;;6.67;6.10;;;;;;;30.50;28.88;95088.50;5053911;28;20524;-78
2021/08/22 11:06:34;;;;;;;8.83;6.00;;;;;;;30.57;29.63;95089.13;5072821;28;20462;-78
2021/08/22 11:09:01;;;;;;;11.20;6.90;;;;;;;30.61;29.06;95087.59;5072739;28;20448;-79
2021/08/22 11:11:28;;;;;;;7.13;6.40;;;;;;;30.69;28.72;95084.47;5072675;28;21005;-78
2021/08/22 11:13:57;;;;;;;7.30;6.70;;;;;;;30.79;29.16;95084.59;5076021;28;20463;-79
2021/08/22 11:16:40;;;;;;;10.70;6.50;;;;;;;30.87;28.63;95077.91;5076527;28;20480;-78
2021/08/22 11:19:07;;;;;;;6.60;6.00;;;;;;;30.90;28.19;95073.88;5076292;28;20454;-78
2021/08/22 11:21:36;;;;;;;8.93;7.20;;;;;;;30.79;28.21;95079.19;5076780;28;20456;-78
2021/08/22 11:24:03;;;;;;;8.17;6.97;;;;;;;30.72;28.92;95073.13;5076492;28;20437;-79
2021/08/22 11:26:31;;;;;;;7.67;6.97;;;;;;;30.77;29.14;95072.38;5076810;28;20452;-79
2021/08/22 11:28:59;;;;;;;6.37;5.87;;;;;;;30.65;27.66;95071.66;5076676;28;20445;-79
2021/08/22 11:31:29;;;;;;;7.60;6.87;;;;;;;30.63;28.77;95068.38;5076886;28;20527;-78
2021/08/22 11:33:57;;;;;;;9.70;6.20;;;;;;;30.68;27.95;95066.59;5076491;28;20448;-78
2021/08/22 11:36:28;;;;;;;8.10;7.30;;;;;;;30.62;28.68;95066.75;5076263;28;20860;-79
2021/08/22 11:39:10;;;;;;;9.20;7.00;;;;;;;30.52;28.48;95075.53;5076638;28;20454;-79
2021/08/22 11:41:39;;;;;;;6.87;6.10;;;;;;;30.45;28.30;95072.19;5076126;28;20452;-79
2021/08/22 11:44:07;;;;;;;7.10;6.50;;;;;;;30.46;29.52;95071.94;5075860;28;20441;-79
2021/08/22 11:46:34;;;;;;;7.53;5.83;;;;;;;30.57;28.36;95069.38;5076067;28;20432;-79
2021/08/22 11:49:02;;;;;;;6.67;6.07;;;;;;;30.63;28.91;95058.38;5076198;28;20467;-80